createdAt,value
2022-08-10T00:01:51.384Z,1.90
2022-08-10T00:04:21.505Z,1.73
2022-08-10T00:06:54.845Z,1.90
2022-08-10T00:09:24.192Z,1.80
2022-08-10T00:11:52.548Z,1.70
2022-08-10T00:14:22.082Z,2.15
2022-08-10T00:16:51.994Z,2.00
2022-08-10T00:19:20.005Z,1.98
2022-08-10T00:21:51.118Z,2.00
2022-08-10T00:24:19.103Z,1.80
2022-08-10T00:28:01.317Z,1.98
2022-08-10T00:29:36.688Z,2.00
2022-08-10T00:32:05.129Z,2.20
2022-08-10T00:34:34.648Z,2.00
2022-08-10T00:37:02.743Z,2.17
2022-08-10T00:39:36.053Z,1.90
2022-08-10T00:42:08.142Z,2.03
2022-08-10T00:44:39.384Z,2.13
2022-08-10T00:47:18.770Z,2.15
2022-08-10T00:49:56.405Z,2.30
2022-08-10T00:52:25.786Z,2.47
2022-08-10T00:54:55.606Z,2.22
2022-08-10T00:57:23.795Z,2.60
2022-08-10T00:59:59.455Z,2.50
2022-08-10T01:02:29.870Z,2.63
2022-08-10T01:05:01.732Z,2.53
2022-08-10T01:08:03.798Z,3.13
2022-08-10T01:10:44.734Z,3.03
2022-08-10T01:13:22.205Z,3.45
2022-08-10T01:16:00.437Z,3.83
2022-08-10T01:18:39.842Z,4.10
2022-08-10T01:21:39.017Z,4.55
2022-08-10T01:24:32.005Z,4.47
2022-08-10T01:27:27.082Z,6.10
2022-08-10T01:30:01.534Z,6.45
2022-08-10T01:32:38.499Z,7.63
2022-08-10T01:35:16.471Z,8.90
2022-08-10T01:37:52.546Z,10.27
2022-08-10T01:40:26.102Z,10.13
2022-08-10T01:42:59.729Z,10.95
2022-08-10T01:45:45.159Z,11.45
2022-08-10T01:48:29.686Z,11.93
2022-08-10T01:51:03.822Z,12.10
2022-08-10T01:53:42.965Z,13.18
2022-08-10T01:56:13.598Z,12.95
2022-08-10T01:58:43.314Z,12.82
2022-08-10T02:01:17.469Z,13.50
2022-08-10T02:04:04.007Z,12.98
2022-08-10T02:06:39.169Z,13.13
2022-08-10T02:09:09.277Z,13.02
2022-08-10T02:12:06.406Z,13.23
2022-08-10T02:14:33.271Z,12.90
2022-08-10T02:17:06.213Z,14.00
2022-08-10T02:19:36.531Z,14.48
2022-08-10T02:22:37.890Z,14.63
2022-08-10T02:24:57.180Z,14.52
2022-08-10T02:27:28.429Z,16.13
2022-08-10T02:29:58.649Z,14.73
2022-08-10T02:32:38.294Z,15.52
2022-08-10T02:35:21.780Z,15.07
2022-08-10T02:37:52.688Z,15.85
2022-08-10T02:45:01.078Z,15.65
2022-08-10T02:45:18.932Z,15.52
2022-08-10T02:46:14.305Z,15.05
2022-08-10T02:48:53.162Z,16.35
2022-08-10T02:52:06.612Z,16.00
2022-08-10T02:54:19.295Z,16.13
2022-08-10T02:56:55.077Z,16.13
2022-08-10T02:59:28.895Z,16.83
2022-08-10T03:02:11.637Z,16.05
2022-08-10T03:04:54.916Z,16.27
2022-08-10T03:07:42.908Z,16.50
2022-08-10T03:10:17.145Z,17.33
2022-08-10T03:12:48.883Z,16.77
2022-08-10T03:15:18.378Z,16.85
2022-08-10T03:17:56.746Z,17.23
2022-08-10T03:20:36.774Z,16.33
2022-08-10T03:23:10.557Z,16.20
2022-08-10T03:25:39.247Z,17.35
2022-08-10T03:28:07.823Z,17.65
2022-08-10T03:30:37.053Z,16.98
2022-08-10T03:33:07.398Z,17.33
2022-08-10T03:35:37.152Z,17.25
2022-08-10T03:38:05.360Z,17.48
2022-08-10T03:40:46.172Z,18.08
2022-08-10T03:43:18.726Z,16.58
2022-08-10T03:45:55.824Z,17.13
2022-08-10T03:48:33.140Z,17.63
2022-08-10T03:51:16.929Z,17.80
2022-08-10T03:54:04.189Z,17.08
2022-08-10T03:56:34.886Z,16.45
2022-08-10T03:59:03.340Z,18.20
2022-08-10T04:02:43.491Z,18.20
2022-08-10T04:04:24.570Z,17.77
2022-08-10T04:06:56.799Z,18.52
2022-08-10T04:09:43.458Z,18.23
2022-08-10T04:12:15.515Z,19.38
2022-08-10T04:14:50.924Z,18.48
2022-08-10T04:17:59.474Z,18.75
2022-08-10T04:20:14.777Z,18.50
2022-08-10T04:22:46.577Z,19.55
2022-08-10T04:25:17.130Z,19.33
2022-08-10T04:27:46.427Z,19.50
2022-08-10T04:30:14.852Z,19.05
2022-08-10T04:32:44.238Z,18.55
2022-08-10T04:35:13.992Z,18.25
2022-08-10T04:37:46.938Z,18.75
2022-08-10T04:40:29.270Z,18.67
2022-08-10T04:43:04.496Z,18.38
2022-08-10T04:45:48.397Z,18.10
2022-08-10T04:48:40.392Z,18.70
2022-08-10T04:51:11.192Z,18.10
2022-08-10T04:54:04.664Z,17.88
2022-08-10T04:56:34.381Z,16.65
2022-08-10T04:59:02.375Z,17.05
2022-08-10T05:02:22.483Z,17.15
2022-08-10T05:04:34.355Z,17.05
2022-08-10T05:07:11.135Z,16.58
2022-08-10T05:10:02.825Z,16.33
2022-08-10T05:12:35.929Z,16.70
2022-08-10T05:15:06.186Z,15.50
2022-08-10T05:17:34.954Z,16.30
2022-08-10T05:20:06.678Z,15.95
2022-08-10T05:22:37.833Z,16.15
2022-08-10T05:25:10.529Z,16.23
2022-08-10T05:27:39.055Z,16.13
2022-08-10T05:30:08.819Z,15.68
2022-08-10T05:32:57.472Z,16.42
2022-08-10T05:35:26.237Z,16.63
2022-08-10T05:38:09.459Z,16.50
2022-08-10T05:40:46.460Z,16.20
2022-08-10T05:43:17.762Z,15.35
2022-08-10T05:46:17.004Z,15.50
2022-08-10T05:48:55.192Z,14.93
2022-08-10T05:51:24.104Z,15.65
2022-08-10T05:54:02.200Z,15.95
2022-08-10T05:56:53.253Z,16.73
2022-08-10T06:00:32.896Z,15.50
2022-08-10T06:02:33.176Z,17.48
2022-08-10T06:05:08.888Z,17.40
2022-08-10T06:07:41.406Z,18.52
2022-08-10T06:10:13.874Z,17.98
2022-08-10T06:13:11.234Z,18.13
2022-08-10T06:15:55.432Z,16.98
2022-08-10T06:18:24.884Z,18.42
2022-08-10T06:20:53.891Z,17.77
2022-08-10T06:23:23.237Z,18.65
2022-08-10T06:26:09.856Z,18.65
2022-08-10T06:29:03.145Z,17.98
2022-08-10T06:31:47.813Z,17.80
2022-08-10T06:34:22.043Z,17.15
2022-08-10T06:36:55.122Z,17.05
2022-08-10T06:39:39.317Z,18.02
2022-08-10T06:42:17.689Z,17.08
2022-08-10T06:44:55.395Z,17.15
2022-08-10T06:47:27.137Z,16.60
2022-08-10T06:50:01.712Z,16.67
2022-08-10T06:52:35.150Z,17.65
2022-08-10T06:55:05.222Z,16.63
2022-08-10T06:57:37.876Z,16.73
2022-08-10T07:00:09.543Z,16.27
2022-08-10T07:02:45.266Z,16.45
2022-08-10T07:05:20.140Z,16.48
2022-08-10T07:07:50.370Z,15.70
2022-08-10T07:10:22.055Z,16.02
2022-08-10T07:12:53.750Z,15.85
2022-08-10T07:15:24.575Z,16.00
2022-08-10T07:18:14.440Z,15.85
2022-08-10T07:20:45.391Z,15.68
2022-08-10T07:23:58.806Z,15.55
2022-08-10T07:26:04.219Z,15.60
2022-08-10T07:28:34.689Z,15.77
2022-08-10T07:31:05.691Z,16.05
2022-08-10T07:33:55.958Z,15.10
2022-08-10T07:36:25.013Z,13.77
2022-08-10T07:38:56.120Z,13.88
2022-08-10T07:41:28.139Z,14.40
2022-08-10T07:43:57.512Z,15.80
2022-08-10T07:46:29.810Z,14.27
2022-08-10T07:49:16.787Z,13.68
2022-08-10T07:51:55.034Z,12.27
2022-08-10T07:54:25.648Z,11.63
2022-08-10T07:56:58.347Z,11.57
2022-08-10T07:59:32.783Z,12.35
2022-08-10T08:02:03.871Z,13.15
2022-08-10T08:04:33.487Z,12.68
2022-08-10T08:07:04.503Z,12.30
2022-08-10T08:09:34.907Z,12.27
2022-08-10T08:12:04.033Z,11.55
2022-08-10T08:14:33.669Z,11.40
2022-08-10T08:17:03.375Z,11.27
2022-08-10T08:19:37.047Z,11.50
2022-08-10T08:24:30.561Z,10.57
2022-08-10T08:25:00.500Z,10.68
2022-08-10T08:27:30.657Z,10.20
2022-08-10T08:30:00.935Z,9.18
2022-08-10T08:32:32.963Z,10.00
2022-08-10T08:35:04.682Z,8.70
2022-08-10T08:38:32.721Z,7.85
2022-08-10T08:40:25.611Z,8.40
2022-08-10T08:43:21.367Z,8.43
2022-08-10T08:46:07.093Z,7.93
2022-08-10T08:48:54.893Z,7.80
2022-08-10T08:52:07.219Z,6.55
2022-08-10T08:54:36.246Z,5.25
2022-08-10T08:57:09.175Z,4.07
2022-08-10T08:59:58.392Z,4.60
2022-08-10T09:02:44.058Z,3.38
2022-08-10T09:05:58.418Z,2.95
2022-08-10T09:08:46.890Z,3.08
2022-08-10T09:11:29.647Z,3.17
2022-08-10T09:14:05.798Z,2.60
2022-08-10T09:16:47.802Z,2.70
2022-08-10T09:19:36.615Z,3.38
2022-08-10T09:22:18.028Z,2.90
2022-08-10T09:24:55.384Z,2.83
2022-08-10T09:27:27.591Z,2.38
2022-08-10T09:29:58.199Z,2.50
2022-08-10T09:36:14.252Z,2.42
2022-08-10T09:36:19.399Z,2.58
2022-08-10T09:38:32.973Z,2.70
2022-08-10T09:41:13.787Z,2.80
2022-08-10T09:43:52.462Z,2.60
2022-08-10T09:46:35.169Z,2.83
2022-08-10T09:49:17.266Z,2.25
2022-08-10T09:51:54.868Z,2.15
2022-08-10T09:54:35.352Z,3.30
2022-08-10T09:57:44.402Z,2.92
2022-08-10T10:00:15.098Z,2.92
2022-08-10T10:03:03.077Z,2.33
2022-08-10T10:05:40.030Z,3.00
2022-08-10T10:08:27.750Z,3.00
2022-08-10T10:11:03.711Z,3.55
2022-08-10T10:14:02.933Z,2.80
2022-08-10T10:16:49.115Z,2.25
2022-08-10T10:19:28.818Z,2.10
2022-08-10T10:22:09.093Z,2.90
2022-08-10T10:24:46.792Z,2.88
2022-08-10T10:27:25.892Z,3.00
2022-08-10T10:30:01.149Z,2.30
2022-08-10T10:32:44.600Z,1.98
2022-08-10T10:35:20.013Z,2.05
2022-08-10T10:38:00.984Z,2.13
2022-08-10T10:40:39.911Z,2.00
2022-08-10T10:43:27.270Z,1.98
2022-08-10T10:46:05.480Z,1.85
2022-08-10T10:48:41.388Z,2.53
2022-08-10T10:51:16.941Z,2.10
2022-08-10T10:53:53.375Z,2.30
2022-08-10T10:56:29.107Z,1.77
2022-08-10T10:59:33.341Z,1.80
2022-08-10T11:02:10.563Z,1.88
2022-08-10T11:04:43.650Z,2.20
2022-08-10T11:07:23.666Z,2.00
2022-08-10T11:10:09.606Z,1.98
2022-08-10T11:12:58.046Z,1.90
2022-08-10T11:15:42.868Z,2.15
2022-08-10T11:18:23.341Z,2.13
2022-08-10T11:21:01.901Z,2.00
2022-08-10T11:23:37.827Z,2.05
2022-08-10T11:26:13.738Z,1.80
2022-08-10T11:28:47.311Z,2.40
2022-08-10T11:31:25.558Z,1.80
2022-08-10T11:34:48.768Z,2.20
2022-08-10T11:36:56.470Z,2.10
2022-08-10T11:39:38.217Z,2.10
2022-08-10T11:42:35.756Z,1.90
2022-08-10T11:45:10.628Z,2.50
2022-08-10T11:47:47.625Z,2.10
2022-08-10T11:50:22.686Z,2.13
2022-08-10T11:52:58.738Z,2.20
2022-08-10T11:55:30.406Z,2.10
2022-08-10T11:58:22.854Z,2.33
2022-08-10T12:00:50.876Z,2.22
2022-08-10T12:03:21.150Z,2.20
2022-08-10T12:05:55.102Z,2.50
2022-08-10T12:10:06.815Z,2.20
2022-08-10T12:11:24.008Z,2.65
2022-08-10T12:14:20.278Z,2.25
2022-08-10T12:16:52.640Z,2.20
2022-08-10T12:19:28.606Z,2.30
2022-08-10T12:22:05.908Z,2.30
2022-08-10T12:24:39.237Z,2.20
2022-08-10T12:27:13.492Z,2.20
2022-08-10T12:29:47.563Z,2.10
2022-08-10T12:32:25.589Z,2.13
2022-08-10T12:35:01.273Z,2.15
2022-08-10T12:37:36.768Z,2.47
2022-08-10T12:44:04.373Z,2.30
2022-08-10T12:46:06.744Z,2.30
2022-08-10T12:48:40.402Z,2.50
2022-08-10T12:51:15.796Z,2.50
2022-08-10T12:53:51.538Z,2.45
2022-08-10T12:56:24.558Z,2.20
2022-08-10T12:58:59.605Z,2.20
2022-08-10T13:02:06.304Z,2.30
2022-08-10T13:04:31.455Z,2.28
2022-08-10T13:07:04.116Z,2.85
2022-08-10T13:09:56.350Z,2.75
2022-08-10T13:12:36.343Z,2.67
2022-08-10T13:15:45.126Z,2.60
2022-08-10T13:18:05.085Z,2.47
2022-08-10T13:20:42.418Z,2.30
2022-08-10T13:23:17.174Z,2.00
2022-08-10T13:25:49.127Z,2.20
2022-08-10T13:28:36.105Z,2.30
2022-08-10T13:31:11.263Z,2.45
2022-08-10T13:34:39.142Z,2.55
2022-08-10T13:36:37.788Z,2.67
2022-08-10T13:39:10.482Z,2.30
2022-08-10T13:41:41.676Z,2.80
2022-08-10T13:44:14.727Z,2.80
2022-08-10T13:46:52.632Z,2.53
2022-08-10T13:49:22.375Z,2.70
2022-08-10T13:51:54.205Z,2.30
2022-08-10T13:54:30.596Z,2.22
2022-08-10T13:56:59.863Z,2.30
2022-08-10T14:00:37.303Z,2.00
2022-08-10T14:02:26.346Z,2.50
2022-08-10T14:04:56.985Z,2.67
2022-08-10T14:07:28.605Z,2.70
2022-08-10T14:10:07.248Z,2.78
2022-08-10T14:12:38.453Z,2.40
2022-08-10T14:15:10.592Z,2.10
2022-08-10T14:17:45.418Z,2.53
2022-08-10T14:20:21.715Z,2.40
2022-08-10T14:22:52.931Z,2.28
2022-08-10T14:25:23.094Z,2.30
2022-08-10T14:28:02.005Z,2.63
2022-08-10T14:30:34.734Z,2.45
2022-08-10T14:33:05.290Z,2.35
2022-08-10T14:36:18.692Z,2.60
2022-08-10T14:38:42.526Z,2.47
2022-08-10T14:42:05.541Z,2.28
2022-08-10T14:44:20.240Z,2.75
2022-08-10T14:47:02.919Z,2.38
2022-08-10T14:49:57.965Z,2.38
2022-08-10T14:52:28.250Z,2.47
2022-08-10T14:55:04.437Z,2.60
2022-08-10T14:58:20.274Z,2.42
2022-08-10T15:00:42.475Z,2.22
2022-08-10T15:04:01.800Z,2.33
2022-08-10T15:06:18.063Z,2.20
2022-08-10T15:08:47.873Z,2.40
2022-08-10T15:12:11.765Z,2.63
2022-08-10T15:14:12.634Z,2.40
2022-08-10T15:17:02.836Z,2.40
2022-08-10T15:20:02.302Z,2.25
2022-08-10T15:22:42.542Z,2.25
2022-08-10T15:25:19.471Z,2.20
2022-08-10T15:28:04.958Z,2.10
2022-08-10T15:30:40.858Z,2.08
2022-08-10T15:33:57.931Z,2.17
2022-08-10T15:36:36.029Z,2.42
2022-08-10T15:39:16.518Z,2.00
2022-08-10T15:42:00.342Z,2.28
2022-08-10T15:44:42.158Z,2.30
2022-08-10T15:47:24.224Z,2.47
2022-08-10T15:50:02.433Z,2.38
2022-08-10T15:53:01.256Z,2.22
2022-08-10T15:55:42.821Z,2.10
2022-08-10T15:58:37.724Z,2.20
2022-08-10T16:02:13.645Z,2.40
2022-08-10T16:04:09.034Z,2.45
2022-08-10T16:06:43.003Z,2.08
2022-08-10T16:10:23.922Z,2.00
2022-08-10T16:12:10.014Z,2.20
2022-08-10T16:14:42.842Z,2.20
2022-08-10T16:17:12.886Z,2.15
2022-08-10T16:19:55.056Z,2.00
2022-08-10T16:22:33.960Z,2.13
2022-08-10T16:25:14.250Z,2.15
2022-08-10T16:27:44.374Z,1.90
2022-08-10T16:30:14.348Z,2.40
2022-08-10T16:32:47.537Z,2.30
2022-08-10T16:35:23.012Z,2.03
2022-08-10T16:37:59.004Z,2.20
2022-08-10T16:40:30.421Z,2.72
2022-08-10T16:43:02.303Z,2.65
2022-08-10T16:45:40.743Z,2.75
2022-08-10T16:48:15.074Z,2.75
2022-08-10T16:51:07.305Z,2.53
2022-08-10T16:53:44.484Z,2.58
2022-08-10T16:56:17.319Z,2.58
2022-08-10T16:58:52.786Z,2.40
2022-08-10T17:01:25.900Z,2.50
2022-08-10T17:04:06.734Z,2.30
2022-08-10T17:06:42.469Z,2.30
2022-08-10T17:09:18.753Z,2.40
2022-08-10T17:11:50.276Z,2.50
2022-08-10T17:14:24.826Z,2.20
2022-08-10T17:16:55.425Z,2.20
2022-08-10T17:19:25.444Z,2.25
2022-08-10T17:21:58.785Z,2.30
2022-08-10T17:24:37.718Z,2.10
2022-08-10T17:28:03.887Z,2.08
2022-08-10T17:30:15.933Z,2.03
2022-08-10T17:32:56.922Z,2.30
2022-08-10T17:35:35.524Z,2.30
2022-08-10T17:38:20.765Z,2.00
2022-08-10T17:40:52.183Z,2.08
2022-08-10T17:43:46.368Z,2.22
2022-08-10T17:46:15.719Z,2.35
2022-08-10T17:48:46.009Z,2.38
2022-08-10T17:51:30.751Z,3.20
2022-08-10T17:54:03.346Z,2.50
2022-08-10T17:56:37.873Z,2.33
2022-08-10T17:59:16.775Z,2.10
2022-08-10T18:02:01.372Z,2.35
2022-08-10T18:04:42.291Z,2.38
2022-08-10T18:07:23.303Z,2.30
2022-08-10T18:09:57.942Z,2.60
2022-08-10T18:12:38.605Z,2.10
2022-08-10T18:15:13.450Z,2.03
2022-08-10T18:17:45.943Z,2.00
2022-08-10T18:20:20.075Z,2.13
2022-08-10T18:22:54.272Z,2.40
2022-08-10T18:25:28.077Z,2.10
2022-08-10T18:28:05.216Z,2.13
2022-08-10T18:30:37.272Z,2.10
2022-08-10T18:33:12.176Z,2.10
2022-08-10T18:35:49.583Z,2.30
2022-08-10T18:38:19.721Z,2.10
2022-08-10T18:40:56.126Z,2.30
2022-08-10T18:44:10.936Z,2.10
2022-08-10T18:46:23.790Z,2.42
2022-08-10T18:48:55.679Z,2.20
2022-08-10T18:51:28.376Z,2.08
2022-08-10T18:54:02.391Z,2.28
2022-08-10T18:56:55.088Z,2.13
2022-08-10T19:00:03.568Z,2.00
2022-08-10T19:02:55.087Z,2.05
2022-08-10T19:05:36.315Z,2.58
2022-08-10T19:08:31.118Z,2.30
2022-08-10T19:11:04.855Z,2.50
2022-08-10T19:13:48.755Z,2.20
2022-08-10T19:16:35.435Z,2.00
2022-08-10T19:19:22.938Z,2.40
2022-08-10T19:22:04.339Z,2.35
2022-08-10T19:24:49.222Z,2.50
2022-08-10T19:27:36.441Z,2.40
2022-08-10T19:30:13.322Z,2.47
2022-08-10T19:33:00.866Z,2.53
2022-08-10T19:36:03.867Z,2.30
2022-08-10T19:38:40.898Z,2.80
2022-08-10T19:41:31.990Z,2.92
2022-08-10T19:44:14.682Z,2.53
2022-08-10T19:46:49.899Z,2.47
2022-08-10T19:49:24.488Z,2.78
2022-08-10T19:52:10.164Z,2.72
2022-08-10T19:54:46.852Z,2.72
2022-08-10T19:57:32.380Z,2.40
2022-08-10T20:00:21.677Z,2.70
2022-08-10T20:03:14.618Z,2.92
2022-08-10T20:06:13.091Z,2.88
2022-08-10T20:08:49.280Z,2.60
2022-08-10T20:11:44.893Z,2.60
2022-08-10T20:14:22.194Z,2.78
2022-08-10T20:16:56.243Z,2.50
2022-08-10T20:19:52.520Z,2.53
2022-08-10T20:22:30.489Z,2.50
2022-08-10T20:25:03.973Z,2.78
2022-08-10T20:27:57.826Z,2.70
2022-08-10T20:30:32.220Z,2.53
2022-08-10T20:33:08.930Z,2.92
2022-08-10T20:35:50.453Z,2.90
2022-08-10T20:38:27.205Z,2.83
2022-08-10T20:41:09.918Z,2.97
2022-08-10T20:43:45.737Z,3.03
2022-08-10T20:46:23.782Z,2.78
2022-08-10T20:49:01.008Z,2.88
2022-08-10T20:51:59.474Z,3.10
2022-08-10T20:54:35.401Z,3.47
2022-08-10T20:57:55.683Z,3.50
2022-08-10T21:00:18.739Z,3.10
2022-08-10T21:03:20.933Z,3.05
2022-08-10T21:06:04.056Z,3.30
2022-08-10T21:08:50.526Z,3.50
2022-08-10T21:11:32.558Z,3.00
2022-08-10T21:14:25.515Z,3.60
2022-08-10T21:17:14.367Z,3.30
2022-08-10T21:20:05.955Z,3.72
2022-08-10T21:22:42.248Z,3.25
2022-08-10T21:25:18.723Z,3.65
2022-08-10T21:28:29.028Z,4.00
2022-08-10T21:31:21.873Z,3.83
2022-08-10T21:34:04.953Z,3.90
2022-08-10T21:36:35.337Z,3.92
2022-08-10T21:39:10.130Z,4.82
2022-08-10T21:42:03.097Z,4.18
2022-08-10T21:45:11.616Z,4.25
2022-08-10T21:48:18.207Z,5.15
2022-08-10T21:51:16.642Z,5.30
2022-08-10T21:54:25.915Z,6.00
2022-08-10T21:57:24.094Z,6.55
2022-08-10T22:00:18.247Z,7.40
2022-08-10T22:03:08.973Z,9.10
2022-08-10T22:05:57.438Z,9.30
2022-08-10T22:08:54.680Z,10.50
2022-08-10T22:11:43.818Z,11.30
2022-08-10T22:14:33.621Z,12.23
2022-08-10T22:18:00.177Z,13.60
2022-08-10T22:20:43.805Z,13.25
2022-08-10T22:23:58.133Z,14.68
2022-08-10T22:27:01.655Z,15.25
2022-08-10T22:29:54.593Z,16.42
2022-08-10T22:32:50.621Z,17.08
2022-08-10T22:36:00.253Z,18.23
2022-08-10T22:39:09.217Z,17.65
2022-08-10T22:42:05.058Z,18.58
2022-08-10T22:44:57.221Z,19.15
2022-08-10T22:47:45.273Z,18.70
2022-08-10T22:50:20.674Z,19.55
2022-08-10T22:52:57.299Z,19.38
2022-08-10T22:55:54.088Z,18.70
2022-08-10T22:58:41.000Z,19.20
2022-08-10T23:01:35.858Z,18.65
2022-08-10T23:04:08.373Z,19.73
2022-08-10T23:06:37.443Z,20.50
2022-08-10T23:09:09.174Z,19.92
2022-08-10T23:11:40.115Z,20.42
2022-08-10T23:14:11.750Z,20.98
2022-08-10T23:17:04.035Z,21.35
2022-08-10T23:19:34.736Z,20.88
2022-08-10T23:22:10.611Z,21.80
2022-08-10T23:24:42.785Z,20.65
2022-08-10T23:27:38.043Z,21.52
2022-08-10T23:30:10.633Z,20.42
2022-08-10T23:32:49.865Z,20.92
2022-08-10T23:36:31.367Z,21.75
2022-08-10T23:38:10.478Z,21.55
2022-08-10T23:40:39.338Z,21.80
2022-08-10T23:43:08.361Z,22.00
2022-08-10T23:45:53.934Z,21.67
2022-08-10T23:48:26.170Z,22.23
2022-08-10T23:50:58.485Z,22.58
2022-08-10T23:53:30.853Z,22.25
2022-08-10T23:56:02.625Z,22.02
2022-08-10T23:58:37.831Z,22.00
